Ana Sayfa
METAR-TAF:

METAR-TAF

Havaalanları :

Mar del Plata, Arjantin

Enlem: 37-56S, Boylam: 057-35W, yükseklik: 18 m

Güncel hava durumu gözlemi

Rapor saat 01:00 UTC de 32 dakika önce yapıldı.
Rüzgar kuzeybatıdan 7 kt
Sıcaklık 5°C
Nem 48%
Basınç 1030 hPa
Görüş mesafesi 10 km veya daha fazla
1500 m altında bulut yok ve kümülonimbus yok

METAR: SAZM 140100Z 31007KT CAVOK 05/M05 Q1030

Saat: 22:32 (01:32 UTC)

Tahmin

Rapor saat 23:00 UTC de 2 saat ve 32 dakika önce yapıldı.
Ayın 14'si saat 00 UTC'den ayın 14'si saat 24 UTC'ye kadar geçerli Tahmin
Rüzgar kuzeybatıdan 5 kt
Görüş mesafesi 10 km veya daha fazla
1500 m altında bulut yok ve kümülonimbus yok

TAF: SAZM 132300Z 1400/1424 32005KT CAVOK TX15/1418Z TNM02/1410Z

4.000'den fazla havaalanı için hava durumu gözlemleri ve tahminleri (METAR ve TAF raporları).

Kullanılabilir istasyonlar harita üzerinde sarı ve kırmızı noktalarla gösterilir.

İstasyonun adını görmek için fareyi noktanın üzerinde gezdirin.

Sonrasında hava gözlem ve tahminlerini görmek için tıklayın.

Haritayı değiştirmek için: yaklaştırmak için siyah artı işaretli yeşil düğmeye ve uzaklaştırmak için de eksi işaretli düğmeye hızla tıklayın; bitişik haritalar için yeşil okları kullanın.


METAR-TAF: